sensor_id;sensor_type;location;lat;lon;timestamp;pressure;altitude;pressure_sealevel;temperature;humidity
56052;BME280;41919;42.648;23.384;2023-04-27T00:00:11;94185.34;;;8.64;51.29
56052;BME280;41919;42.648;23.384;2023-04-27T00:02:37;94163.53;;;8.52;51.45
56052;BME280;41919;42.648;23.384;2023-04-27T00:05:03;94224.81;;;8.88;51.66
56052;BME280;41919;42.648;23.384;2023-04-27T00:07:30;94252.28;;;8.97;52.05
56052;BME280;41919;42.648;23.384;2023-04-27T00:09:55;94178.28;;;8.38;51.87
56052;BME280;41919;42.648;23.384;2023-04-27T00:12:20;94251.69;;;8.95;52.18
56052;BME280;41919;42.648;23.384;2023-04-27T00:14:46;94252.50;;;9.02;51.53
56052;BME280;41919;42.648;23.384;2023-04-27T00:17:11;94200.16;;;8.57;51.60
56052;BME280;41919;42.648;23.384;2023-04-27T00:19:37;94143.03;;;8.15;51.48
56052;BME280;41919;42.648;23.384;2023-04-27T00:22:03;94175.94;;;8.43;51.48
56052;BME280;41919;42.648;23.384;2023-04-27T00:24:29;94178.13;;;8.46;51.00
56052;BME280;41919;42.648;23.384;2023-04-27T00:26:54;94235.47;;;8.73;51.61
56052;BME280;41919;42.648;23.384;2023-04-27T00:29:20;94244.88;;;8.74;50.96
56052;BME280;41919;42.648;23.384;2023-04-27T00:31:46;94241.84;;;8.70;51.59
56052;BME280;41919;42.648;23.384;2023-04-27T00:34:11;94180.06;;;8.11;51.51
56052;BME280;41919;42.648;23.384;2023-04-27T00:36:36;94237.03;;;8.54;51.92
56052;BME280;41919;42.648;23.384;2023-04-27T00:39:02;94186.28;;;8.16;51.69
56052;BME280;41919;42.648;23.384;2023-04-27T00:41:28;94220.13;;;8.30;52.06
56052;BME280;41919;42.648;23.384;2023-04-27T00:43:53;94256.06;;;8.54;51.68
56052;BME280;41919;42.648;23.384;2023-04-27T00:46:19;94199.88;;;8.12;51.59
56052;BME280;41919;42.648;23.384;2023-04-27T00:48:45;94207.69;;;8.18;52.08
56052;BME280;41919;42.648;23.384;2023-04-27T00:51:11;94205.66;;;8.07;51.92
56052;BME280;41919;42.648;23.384;2023-04-27T00:53:37;94271.47;;;8.49;51.88
56052;BME280;41919;42.648;23.384;2023-04-27T00:56:06;94194.03;;;7.96;52.25
56052;BME280;41919;42.648;23.384;2023-04-27T00:58:32;94165.94;;;7.78;51.74
56052;BME280;41919;42.648;23.384;2023-04-27T01:00:58;94206.03;;;7.97;51.74
56052;BME280;41919;42.648;23.384;2023-04-27T01:03:25;94242.09;;;8.07;52.36
56052;BME280;41919;42.648;23.384;2023-04-27T01:05:50;94212.41;;;7.81;52.54
56052;BME280;41919;42.648;23.384;2023-04-27T01:08:16;94267.97;;;8.15;52.49
56052;BME280;41919;42.648;23.384;2023-04-27T01:10:41;94209.13;;;7.66;52.98
56052;BME280;41919;42.648;23.384;2023-04-27T01:13:07;94289.34;;;8.04;53.21
56052;BME280;41919;42.648;23.384;2023-04-27T01:15:32;94270.31;;;7.97;53.12
56052;BME280;41919;42.648;23.384;2023-04-27T01:17:58;94275.22;;;7.78;53.25
56052;BME280;41919;42.648;23.384;2023-04-27T01:20:24;94211.06;;;7.51;53.05
56052;BME280;41919;42.648;23.384;2023-04-27T01:22:57;94204.81;;;7.38;53.46
56052;BME280;41919;42.648;23.384;2023-04-27T01:25:23;94275.44;;;7.77;53.51
56052;BME280;41919;42.648;23.384;2023-04-27T01:27:48;94288.22;;;7.78;53.80
56052;BME280;41919;42.648;23.384;2023-04-27T01:30:14;94273.19;;;7.67;54.12
56052;BME280;41919;42.648;23.384;2023-04-27T01:32:40;94222.00;;;7.33;54.01
56052;BME280;41919;42.648;23.384;2023-04-27T01:35:06;94231.44;;;7.40;53.92
56052;BME280;41919;42.648;23.384;2023-04-27T01:37:31;94288.00;;;7.73;53.96
56052;BME280;41919;42.648;23.384;2023-04-27T01:39:57;94226.09;;;7.20;54.42
56052;BME280;41919;42.648;23.384;2023-04-27T01:42:22;94220.72;;;7.22;54.90
56052;BME280;41919;42.648;23.384;2023-04-27T01:44:48;94226.75;;;7.29;53.91
56052;BME280;41919;42.648;23.384;2023-04-27T01:47:16;94259.41;;;7.38;53.91
56052;BME280;41919;42.648;23.384;2023-04-27T01:49:42;94222.47;;;7.15;54.54
56052;BME280;41919;42.648;23.384;2023-04-27T01:52:08;94232.44;;;7.11;54.11
56052;BME280;41919;42.648;23.384;2023-04-27T01:54:33;94295.91;;;7.52;54.54
56052;BME280;41919;42.648;23.384;2023-04-27T01:56:59;94250.88;;;7.16;54.39
56052;BME280;41919;42.648;23.384;2023-04-27T01:59:26;94256.25;;;7.15;54.42
56052;BME280;41919;42.648;23.384;2023-04-27T02:01:52;94220.50;;;6.89;54.50
56052;BME280;41919;42.648;23.384;2023-04-27T02:04:18;94273.06;;;7.19;54.93
56052;BME280;41919;42.648;23.384;2023-04-27T02:06:43;94286.56;;;7.29;55.05
56052;BME280;41919;42.648;23.384;2023-04-27T02:09:08;94294.63;;;7.41;54.67
56052;BME280;41919;42.648;23.384;2023-04-27T02:11:34;94237.78;;;7.03;54.54
56052;BME280;41919;42.648;23.384;2023-04-27T02:13:59;94303.81;;;7.43;54.56
56052;BME280;41919;42.648;23.384;2023-04-27T02:16:25;94292.22;;;7.39;54.53
56052;BME280;41919;42.648;23.384;2023-04-27T02:18:50;94160.75;;;6.60;54.15
56052;BME280;41919;42.648;23.384;2023-04-27T02:21:18;94310.41;;;7.39;54.27
56052;BME280;41919;42.648;23.384;2023-04-27T02:23:43;94211.19;;;6.73;54.72
56052;BME280;41919;42.648;23.384;2023-04-27T02:26:18;94316.19;;;7.35;54.94
56052;BME280;41919;42.648;23.384;2023-04-27T02:28:45;94304.16;;;7.34;54.52
56052;BME280;41919;42.648;23.384;2023-04-27T02:31:12;94252.22;;;6.84;54.27
56052;BME280;41919;42.648;23.384;2023-04-27T02:33:39;94225.59;;;6.75;54.44
56052;BME280;41919;42.648;23.384;2023-04-27T02:36:06;94303.19;;;7.35;54.42
56052;BME280;41919;42.648;23.384;2023-04-27T02:38:31;94307.78;;;7.33;54.36
56052;BME280;41919;42.648;23.384;2023-04-27T02:40:57;94229.47;;;6.86;54.29
56052;BME280;41919;42.648;23.384;2023-04-27T02:43:22;94238.13;;;6.93;54.37
56052;BME280;41919;42.648;23.384;2023-04-27T02:45:47;94251.09;;;6.93;54.36
56052;BME280;41919;42.648;23.384;2023-04-27T02:48:13;94243.81;;;6.82;54.30
56052;BME280;41919;42.648;23.384;2023-04-27T02:50:42;94240.69;;;6.86;54.23
56052;BME280;41919;42.648;23.384;2023-04-27T02:53:08;94291.41;;;7.11;54.44
56052;BME280;41919;42.648;23.384;2023-04-27T02:55:34;94307.38;;;7.36;53.96
56052;BME280;41919;42.648;23.384;2023-04-27T02:57:59;94309.19;;;7.35;54.29
56052;BME280;41919;42.648;23.384;2023-04-27T03:00:25;94247.00;;;6.77;53.78
56052;BME280;41919;42.648;23.384;2023-04-27T03:02:51;94302.03;;;7.16;54.04
56052;BME280;41919;42.648;23.384;2023-04-27T03:05:16;94246.66;;;6.87;53.80
56052;BME280;41919;42.648;23.384;2023-04-27T03:07:42;94298.59;;;7.09;54.03
56052;BME280;41919;42.648;23.384;2023-04-27T03:10:08;94244.41;;;6.77;54.18
56052;BME280;41919;42.648;23.384;2023-04-27T03:12:33;94294.28;;;6.94;54.10
56052;BME280;41919;42.648;23.384;2023-04-27T03:14:59;94248.09;;;6.68;53.79
56052;BME280;41919;42.648;23.384;2023-04-27T03:17:25;94246.13;;;6.70;53.57
56052;BME280;41919;42.648;23.384;2023-04-27T03:19:51;94324.69;;;7.22;53.65
56052;BME280;41919;42.648;23.384;2023-04-27T03:22:16;94332.47;;;7.22;54.21
56052;BME280;41919;42.648;23.384;2023-04-27T03:24:42;94282.41;;;6.85;53.65
56052;BME280;41919;42.648;23.384;2023-04-27T03:27:07;94281.41;;;6.86;54.07
56052;BME280;41919;42.648;23.384;2023-04-27T03:29:33;94334.50;;;7.26;53.28
56052;BME280;41919;42.648;23.384;2023-04-27T03:31:58;94330.03;;;7.14;53.72
56052;BME280;41919;42.648;23.384;2023-04-27T03:34:23;94333.59;;;7.13;53.60
56052;BME280;41919;42.648;23.384;2023-04-27T03:36:49;94343.63;;;7.16;53.84
56052;BME280;41919;42.648;23.384;2023-04-27T03:39:15;94329.28;;;6.98;53.89
56052;BME280;41919;42.648;23.384;2023-04-27T03:41:41;94338.69;;;6.99;54.26
56052;BME280;41919;42.648;23.384;2023-04-27T03:44:06;94332.13;;;7.03;53.54
56052;BME280;41919;42.648;23.384;2023-04-27T03:46:31;94340.78;;;7.11;54.15
56052;BME280;41919;42.648;23.384;2023-04-27T03:48:57;94280.03;;;6.62;53.60
56052;BME280;41919;42.648;23.384;2023-04-27T03:51:22;94344.38;;;7.10;53.76
56052;BME280;41919;42.648;23.384;2023-04-27T03:53:48;94354.78;;;7.10;53.41
56052;BME280;41919;42.648;23.384;2023-04-27T03:56:14;94344.00;;;6.91;53.85
56052;BME280;41919;42.648;23.384;2023-04-27T03:58:39;94356.13;;;7.05;53.83
56052;BME280;41919;42.648;23.384;2023-04-27T04:01:04;94361.56;;;7.11;53.67
56052;BME280;41919;42.648;23.384;2023-04-27T04:03:30;94295.59;;;6.62;53.57
56052;BME280;41919;42.648;23.384;2023-04-27T04:05:56;94335.59;;;6.89;53.89
56052;BME280;41919;42.648;23.384;2023-04-27T04:08:21;94344.66;;;7.00;53.27
56052;BME280;41919;42.648;23.384;2023-04-27T04:10:47;94365.16;;;7.10;52.99
56052;BME280;41919;42.648;23.384;2023-04-27T04:13:12;94378.81;;;7.18;53.00
56052;BME280;41919;42.648;23.384;2023-04-27T04:15:37;94310.59;;;6.88;52.76
56052;BME280;41919;42.648;23.384;2023-04-27T04:18:03;94391.25;;;7.44;53.00
56052;BME280;41919;42.648;23.384;2023-04-27T04:20:28;94311.31;;;7.03;52.22
56052;BME280;41919;42.648;23.384;2023-04-27T04:22:54;94305.94;;;7.05;52.13
56052;BME280;41919;42.648;23.384;2023-04-27T04:25:19;94394.41;;;7.68;51.25
56052;BME280;41919;42.648;23.384;2023-04-27T04:27:45;94321.22;;;7.15;51.43
56052;BME280;41919;42.648;23.384;2023-04-27T04:30:12;94327.25;;;7.15;51.08
56052;BME280;41919;42.648;23.384;2023-04-27T04:32:38;94337.16;;;7.33;51.09
56052;BME280;41919;42.648;23.384;2023-04-27T04:35:05;94309.00;;;7.37;50.64
56052;BME280;41919;42.648;23.384;2023-04-27T04:37:34;94325.13;;;7.54;50.33
56052;BME280;41919;42.648;23.384;2023-04-27T04:40:03;94305.56;;;7.36;50.70
56052;BME280;41919;42.648;23.384;2023-04-27T04:42:33;94384.59;;;7.98;50.36
56052;BME280;41919;42.648;23.384;2023-04-27T04:44:58;94417.22;;;8.29;49.81
56052;BME280;41919;42.648;23.384;2023-04-27T04:47:24;94413.56;;;8.23;49.55
56052;BME280;41919;42.648;23.384;2023-04-27T04:49:49;94387.56;;;8.30;49.54
56052;BME280;41919;42.648;23.384;2023-04-27T04:52:15;94332.38;;;8.00;49.79
56052;BME280;41919;42.648;23.384;2023-04-27T04:54:40;94364.94;;;8.31;48.85
56052;BME280;41919;42.648;23.384;2023-04-27T04:57:06;94375.56;;;8.29;48.52
56052;BME280;41919;42.648;23.384;2023-04-27T04:59:32;94354.53;;;8.31;48.08
56052;BME280;41919;42.648;23.384;2023-04-27T05:01:58;94435.00;;;9.22;47.64
56052;BME280;41919;42.648;23.384;2023-04-27T05:04:23;94382.66;;;9.23;46.47
56052;BME280;41919;42.648;23.384;2023-04-27T05:06:49;94379.03;;;9.71;45.74
56052;BME280;41919;42.648;23.384;2023-04-27T05:09:14;94368.53;;;10.11;44.69
56052;BME280;41919;42.648;23.384;2023-04-27T05:11:40;94405.13;;;10.70;43.31
56052;BME280;41919;42.648;23.384;2023-04-27T05:14:05;94391.91;;;10.65;42.88
56052;BME280;41919;42.648;23.384;2023-04-27T05:16:30;94427.22;;;11.19;41.94
56052;BME280;41919;42.648;23.384;2023-04-27T05:18:56;94433.81;;;11.22;40.87
56052;BME280;41919;42.648;23.384;2023-04-27T05:21:22;94440.00;;;11.34;41.29
56052;BME280;41919;42.648;23.384;2023-04-27T05:23:48;94442.81;;;11.32;41.81
56052;BME280;41919;42.648;23.384;2023-04-27T05:26:14;94354.59;;;10.44;41.84
56052;BME280;41919;42.648;23.384;2023-04-27T05:28:40;94441.44;;;10.91;41.37
56052;BME280;41919;42.648;23.384;2023-04-27T05:31:06;94372.72;;;10.32;42.04
56052;BME280;41919;42.648;23.384;2023-04-27T05:33:31;94402.25;;;10.33;42.52
56052;BME280;41919;42.648;23.384;2023-04-27T05:35:57;94322.81;;;9.75;42.40
56052;BME280;41919;42.648;23.384;2023-04-27T05:38:22;94430.59;;;10.23;43.87
56052;BME280;41919;42.648;23.384;2023-04-27T05:40:57;94452.28;;;10.30;43.30
56052;BME280;41919;42.648;23.384;2023-04-27T05:43:24;94420.56;;;9.99;43.20
56052;BME280;41919;42.648;23.384;2023-04-27T05:45:49;94454.72;;;9.98;43.54
56052;BME280;41919;42.648;23.384;2023-04-27T05:48:15;94444.25;;;10.05;44.35
56052;BME280;41919;42.648;23.384;2023-04-27T05:50:41;94453.69;;;10.12;43.83
56052;BME280;41919;42.648;23.384;2023-04-27T05:53:06;94447.09;;;10.03;44.60
56052;BME280;41919;42.648;23.384;2023-04-27T05:55:32;94445.91;;;9.72;44.34
56052;BME280;41919;42.648;23.384;2023-04-27T05:57:58;94427.19;;;9.49;45.05
56052;BME280;41919;42.648;23.384;2023-04-27T06:00:23;94449.69;;;9.70;44.83
56052;BME280;41919;42.648;23.384;2023-04-27T06:02:49;94377.44;;;9.37;45.28
56052;BME280;41919;42.648;23.384;2023-04-27T06:05:14;94448.28;;;9.74;45.62
56052;BME280;41919;42.648;23.384;2023-04-27T06:07:40;94393.50;;;9.40;45.43
56052;BME280;41919;42.648;23.384;2023-04-27T06:10:08;94436.66;;;9.76;45.11
56052;BME280;41919;42.648;23.384;2023-04-27T06:12:34;94441.88;;;9.76;45.35
56052;BME280;41919;42.648;23.384;2023-04-27T06:14:59;94469.34;;;10.39;44.55
56052;BME280;41919;42.648;23.384;2023-04-27T06:17:27;94467.69;;;10.65;44.44
56052;BME280;41919;42.648;23.384;2023-04-27T06:19:52;94460.97;;;11.27;42.94
56052;BME280;41919;42.648;23.384;2023-04-27T06:22:18;94381.09;;;11.25;41.74
56052;BME280;41919;42.648;23.384;2023-04-27T06:24:43;94405.03;;;11.53;41.42
56052;BME280;41919;42.648;23.384;2023-04-27T06:27:08;94456.06;;;12.01;40.88
56052;BME280;41919;42.648;23.384;2023-04-27T06:29:34;94457.22;;;12.05;41.04
56052;BME280;41919;42.648;23.384;2023-04-27T06:31:59;94460.25;;;12.02;41.08
56052;BME280;41919;42.648;23.384;2023-04-27T06:34:25;94464.09;;;12.06;40.98
56052;BME280;41919;42.648;23.384;2023-04-27T06:36:51;94457.00;;;12.32;41.37
56052;BME280;41919;42.648;23.384;2023-04-27T06:39:16;94431.94;;;12.36;41.41
56052;BME280;41919;42.648;23.384;2023-04-27T06:41:42;94457.28;;;12.61;40.23
56052;BME280;41919;42.648;23.384;2023-04-27T06:44:07;94411.69;;;12.25;40.54
56052;BME280;41919;42.648;23.384;2023-04-27T06:46:33;94382.72;;;12.01;40.19
56052;BME280;41919;42.648;23.384;2023-04-27T06:48:58;94408.06;;;12.26;40.70
56052;BME280;41919;42.648;23.384;2023-04-27T06:51:23;94452.50;;;12.76;39.91
56052;BME280;41919;42.648;23.384;2023-04-27T06:53:49;94395.84;;;12.57;39.97
56052;BME280;41919;42.648;23.384;2023-04-27T06:56:14;94453.63;;;13.47;39.10
56052;BME280;41919;42.648;23.384;2023-04-27T06:58:39;94440.69;;;13.76;37.86
56052;BME280;41919;42.648;23.384;2023-04-27T07:01:05;94388.38;;;13.86;36.65
56052;BME280;41919;42.648;23.384;2023-04-27T07:03:33;94440.81;;;14.05;37.15
56052;BME280;41919;42.648;23.384;2023-04-27T07:05:59;94453.28;;;14.68;36.21
56052;BME280;41919;42.648;23.384;2023-04-27T07:08:24;94425.59;;;14.78;35.29
56052;BME280;41919;42.648;23.384;2023-04-27T07:10:50;94436.66;;;15.20;35.30
56052;BME280;41919;42.648;23.384;2023-04-27T07:13:15;94430.09;;;15.06;34.32
56052;BME280;41919;42.648;23.384;2023-04-27T07:15:41;94379.00;;;15.19;34.61
56052;BME280;41919;42.648;23.384;2023-04-27T07:18:06;94412.91;;;15.78;34.28
56052;BME280;41919;42.648;23.384;2023-04-27T07:20:32;94430.03;;;15.92;33.71
56052;BME280;41919;42.648;23.384;2023-04-27T07:22:57;94441.00;;;16.57;33.36
56052;BME280;41919;42.648;23.384;2023-04-27T07:25:23;94427.78;;;17.45;31.32
56052;BME280;41919;42.648;23.384;2023-04-27T07:27:48;94424.13;;;17.51;30.67
56052;BME280;41919;42.648;23.384;2023-04-27T07:30:13;94424.63;;;18.08;30.56
56052;BME280;41919;42.648;23.384;2023-04-27T07:32:40;94375.72;;;18.53;29.28
56052;BME280;41919;42.648;23.384;2023-04-27T07:35:08;94416.31;;;19.52;28.07
56052;BME280;41919;42.648;23.384;2023-04-27T07:37:35;94432.00;;;20.31;26.65
56052;BME280;41919;42.648;23.384;2023-04-27T07:40:02;94420.31;;;20.11;27.01
56052;BME280;41919;42.648;23.384;2023-04-27T07:42:36;94422.97;;;19.96;26.77
56052;BME280;41919;42.648;23.384;2023-04-27T07:45:02;94396.13;;;19.46;28.09
56052;BME280;41919;42.648;23.384;2023-04-27T07:47:28;94385.53;;;19.36;26.84
56052;BME280;41919;42.648;23.384;2023-04-27T07:49:53;94389.78;;;19.37;27.09
56052;BME280;41919;42.648;23.384;2023-04-27T07:52:19;94423.16;;;19.38;26.60
56052;BME280;41919;42.648;23.384;2023-04-27T07:54:45;94370.94;;;18.55;26.93
56052;BME280;41919;42.648;23.384;2023-04-27T07:57:11;94439.22;;;18.53;26.89
56052;BME280;41919;42.648;23.384;2023-04-27T07:59:37;94413.22;;;18.39;27.72
56052;BME280;41919;42.648;23.384;2023-04-27T08:02:02;94370.56;;;17.88;28.08
56052;BME280;41919;42.648;23.384;2023-04-27T08:04:28;94363.72;;;17.33;28.49
56052;BME280;41919;42.648;23.384;2023-04-27T08:06:53;94436.00;;;18.08;28.98
56052;BME280;41919;42.648;23.384;2023-04-27T08:09:19;94375.53;;;18.22;28.14
56052;BME280;41919;42.648;23.384;2023-04-27T08:11:44;94431.56;;;18.56;28.14
56052;BME280;41919;42.648;23.384;2023-04-27T08:14:10;94386.38;;;18.73;27.97
56052;BME280;41919;42.648;23.384;2023-04-27T08:16:42;94435.41;;;19.65;26.49
56052;BME280;41919;42.648;23.384;2023-04-27T08:19:14;94433.75;;;19.28;25.90
56052;BME280;41919;42.648;23.384;2023-04-27T08:21:40;94440.81;;;19.12;26.14
56052;BME280;41919;42.648;23.384;2023-04-27T08:24:05;94379.13;;;19.06;25.99
56052;BME280;41919;42.648;23.384;2023-04-27T08:26:32;94370.84;;;18.34;26.47
56052;BME280;41919;42.648;23.384;2023-04-27T08:28:57;94438.06;;;18.01;27.73
56052;BME280;41919;42.648;23.384;2023-04-27T08:31:25;94408.06;;;17.58;28.37
56052;BME280;41919;42.648;23.384;2023-04-27T08:33:51;94427.31;;;17.53;28.42
56052;BME280;41919;42.648;23.384;2023-04-27T08:36:20;94421.53;;;17.56;28.62
56052;BME280;41919;42.648;23.384;2023-04-27T08:38:49;94387.03;;;17.68;28.40
56052;BME280;41919;42.648;23.384;2023-04-27T08:41:18;94294.09;;;17.12;28.49
56052;BME280;41919;42.648;23.384;2023-04-27T08:43:45;94433.75;;;17.90;28.06
56052;BME280;41919;42.648;23.384;2023-04-27T08:46:10;94379.75;;;16.99;28.64
56052;BME280;41919;42.648;23.384;2023-04-27T08:48:36;94402.16;;;16.96;28.88
56052;BME280;41919;42.648;23.384;2023-04-27T08:51:02;94391.25;;;16.88;28.46
56052;BME280;41919;42.648;23.384;2023-04-27T08:53:31;94349.53;;;16.01;30.21
56052;BME280;41919;42.648;23.384;2023-04-27T08:55:57;94436.13;;;16.49;30.24
56052;BME280;41919;42.648;23.384;2023-04-27T08:58:35;94393.59;;;15.89;31.95
56052;BME280;41919;42.648;23.384;2023-04-27T09:01:04;94418.59;;;16.03;31.18
56052;BME280;41919;42.648;23.384;2023-04-27T09:03:31;94374.75;;;15.63;31.67
56052;BME280;41919;42.648;23.384;2023-04-27T09:05:56;94423.00;;;16.15;31.23
56052;BME280;41919;42.648;23.384;2023-04-27T09:08:21;94371.00;;;15.59;32.34
56052;BME280;41919;42.648;23.384;2023-04-27T09:10:49;94346.41;;;14.91;32.84
56052;BME280;41919;42.648;23.384;2023-04-27T09:13:15;94353.44;;;15.02;33.73
56052;BME280;41919;42.648;23.384;2023-04-27T09:15:48;94432.41;;;15.77;32.46
56052;BME280;41919;42.648;23.384;2023-04-27T09:18:19;94441.03;;;15.89;33.23
56052;BME280;41919;42.648;23.384;2023-04-27T09:20:46;94428.59;;;16.01;32.56
56052;BME280;41919;42.648;23.384;2023-04-27T09:23:35;94365.00;;;15.64;32.34
56052;BME280;41919;42.648;23.384;2023-04-27T09:26:03;94423.25;;;16.35;31.66
56052;BME280;41919;42.648;23.384;2023-04-27T09:28:33;94413.00;;;16.78;30.73
56052;BME280;41919;42.648;23.384;2023-04-27T09:31:00;94340.06;;;16.22;31.37
56052;BME280;41919;42.648;23.384;2023-04-27T09:33:33;94346.25;;;15.94;31.98
56052;BME280;41919;42.648;23.384;2023-04-27T09:36:02;94373.81;;;16.03;31.54
56052;BME280;41919;42.648;23.384;2023-04-27T09:38:29;94419.50;;;15.92;30.63
56052;BME280;41919;42.648;23.384;2023-04-27T09:40:54;94399.88;;;15.54;31.61
56052;BME280;41919;42.648;23.384;2023-04-27T09:43:21;94323.91;;;14.83;32.86
56052;BME280;41919;42.648;23.384;2023-04-27T09:45:47;94345.13;;;14.94;32.17
56052;BME280;41919;42.648;23.384;2023-04-27T09:48:13;94379.28;;;15.34;32.66
56052;BME280;41919;42.648;23.384;2023-04-27T09:50:40;94391.75;;;15.56;32.13
56052;BME280;41919;42.648;23.384;2023-04-27T09:53:15;94340.34;;;15.36;32.31
56052;BME280;41919;42.648;23.384;2023-04-27T10:01:42;94339.66;;;15.75;31.04
56052;BME280;41919;42.648;23.384;2023-04-27T10:04:43;94397.03;;;15.73;32.01
56052;BME280;41919;42.648;23.384;2023-04-27T10:07:12;94400.94;;;15.87;32.11
56052;BME280;41919;42.648;23.384;2023-04-27T10:09:42;94393.91;;;16.26;31.62
56052;BME280;41919;42.648;23.384;2023-04-27T10:12:21;94323.25;;;15.73;30.82
56052;BME280;41919;42.648;23.384;2023-04-27T10:17:18;94400.75;;;16.11;30.42
56052;BME280;41919;42.648;23.384;2023-04-27T10:19:55;94376.69;;;15.85;30.80
56052;BME280;41919;42.648;23.384;2023-04-27T10:22:21;94394.34;;;16.01;30.82
56052;BME280;41919;42.648;23.384;2023-04-27T10:24:49;94344.00;;;14.89;31.40
56052;BME280;41919;42.648;23.384;2023-04-27T10:27:16;94340.50;;;15.01;32.48
56052;BME280;41919;42.648;23.384;2023-04-27T10:29:49;94321.53;;;14.99;31.96
56052;BME280;41919;42.648;23.384;2023-04-27T10:32:25;94399.16;;;15.59;32.23
56052;BME280;41919;42.648;23.384;2023-04-27T10:35:01;94393.84;;;15.71;31.92
56052;BME280;41919;42.648;23.384;2023-04-27T10:37:40;94382.81;;;15.74;31.63
56052;BME280;41919;42.648;23.384;2023-04-27T10:40:07;94388.97;;;15.79;32.09
56052;BME280;41919;42.648;23.384;2023-04-27T10:42:34;94385.63;;;15.84;32.14
56052;BME280;41919;42.648;23.384;2023-04-27T10:45:00;94389.22;;;15.95;32.52
56052;BME280;41919;42.648;23.384;2023-04-27T10:47:42;94354.13;;;16.11;30.96
56052;BME280;41919;42.648;23.384;2023-04-27T10:50:12;94371.72;;;16.05;31.19
56052;BME280;41919;42.648;23.384;2023-04-27T10:52:44;94304.34;;;15.25;39.81
56052;BME280;41919;42.648;23.384;2023-04-27T10:55:15;94326.69;;;15.56;31.20
56052;BME280;41919;42.648;23.384;2023-04-27T10:57:48;94334.69;;;15.61;31.49
56052;BME280;41919;42.648;23.384;2023-04-27T11:00:20;94376.25;;;16.10;30.10
56052;BME280;41919;42.648;23.384;2023-04-27T11:02:46;94370.78;;;15.78;30.97
56052;BME280;41919;42.648;23.384;2023-04-27T11:05:19;94325.88;;;15.39;31.35
56052;BME280;41919;42.648;23.384;2023-04-27T11:07:46;94378.44;;;15.96;31.84
56052;BME280;41919;42.648;23.384;2023-04-27T11:10:17;94361.50;;;15.92;30.10
56052;BME280;41919;42.648;23.384;2023-04-27T11:12:43;94307.69;;;15.71;29.72
56052;BME280;41919;42.648;23.384;2023-04-27T11:15:09;94368.38;;;15.93;29.88
56052;BME280;41919;42.648;23.384;2023-04-27T11:17:35;94375.31;;;15.65;29.63
56052;BME280;41919;42.648;23.384;2023-04-27T11:20:01;94360.84;;;15.34;29.53
56052;BME280;41919;42.648;23.384;2023-04-27T11:22:26;94327.53;;;14.54;30.48
56052;BME280;41919;42.648;23.384;2023-04-27T11:24:52;94308.78;;;14.09;31.06
56052;BME280;41919;42.648;23.384;2023-04-27T11:27:18;94366.75;;;14.43;31.11
56052;BME280;41919;42.648;23.384;2023-04-27T11:29:46;94373.41;;;14.46;30.83
56052;BME280;41919;42.648;23.384;2023-04-27T11:32:21;94379.69;;;14.85;49.20
56052;BME280;41919;42.648;23.384;2023-04-27T11:34:50;94389.00;;;14.76;34.30
56052;BME280;41919;42.648;23.384;2023-04-27T11:37:24;94388.81;;;14.95;36.11
56052;BME280;41919;42.648;23.384;2023-04-27T11:39:51;94348.00;;;14.92;35.21
56052;BME280;41919;42.648;23.384;2023-04-27T11:42:26;94341.63;;;15.05;35.83
56052;BME280;41919;42.648;23.384;2023-04-27T11:45:01;94325.63;;;15.23;33.06
56052;BME280;41919;42.648;23.384;2023-04-27T11:47:28;94392.69;;;15.66;30.68
56052;BME280;41919;42.648;23.384;2023-04-27T11:49:58;94370.59;;;15.67;31.83
56052;BME280;41919;42.648;23.384;2023-04-27T11:52:28;94370.44;;;15.57;32.16
56052;BME280;41919;42.648;23.384;2023-04-27T11:54:54;94332.13;;;15.49;32.96
56052;BME280;41919;42.648;23.384;2023-04-27T11:57:27;94276.00;;;15.32;33.22
56052;BME280;41919;42.648;23.384;2023-04-27T11:59:54;94293.41;;;15.50;32.98
56052;BME280;41919;42.648;23.384;2023-04-27T12:02:21;94334.25;;;16.03;31.81
56052;BME280;41919;42.648;23.384;2023-04-27T12:04:47;94345.44;;;16.33;31.55
56052;BME280;41919;42.648;23.384;2023-04-27T12:07:13;94386.25;;;16.69;30.03
56052;BME280;41919;42.648;23.384;2023-04-27T12:09:39;94373.97;;;16.58;30.79
56052;BME280;41919;42.648;23.384;2023-04-27T12:12:05;94398.63;;;16.46;31.08
56052;BME280;41919;42.648;23.384;2023-04-27T12:14:30;94350.97;;;16.31;30.30
56052;BME280;41919;42.648;23.384;2023-04-27T12:16:56;94400.19;;;16.64;30.07
56052;BME280;41919;42.648;23.384;2023-04-27T12:19:21;94303.78;;;15.91;29.92
56052;BME280;41919;42.648;23.384;2023-04-27T12:21:49;94363.41;;;15.97;31.11
56052;BME280;41919;42.648;23.384;2023-04-27T12:24:15;94346.25;;;15.77;30.09
56052;BME280;41919;42.648;23.384;2023-04-27T12:26:40;94357.09;;;15.64;31.18
56052;BME280;41919;42.648;23.384;2023-04-27T12:29:06;94356.06;;;15.65;30.27
56052;BME280;41919;42.648;23.384;2023-04-27T12:31:31;94370.25;;;15.47;31.12
56052;BME280;41919;42.648;23.384;2023-04-27T12:33:57;94410.78;;;15.92;31.63
56052;BME280;41919;42.648;23.384;2023-04-27T12:36:23;94402.47;;;16.17;30.77
56052;BME280;41919;42.648;23.384;2023-04-27T12:38:48;94344.97;;;15.97;30.38
56052;BME280;41919;42.648;23.384;2023-04-27T12:41:13;94398.63;;;16.07;30.23
56052;BME280;41919;42.648;23.384;2023-04-27T12:43:39;94406.00;;;16.44;30.67
56052;BME280;41919;42.648;23.384;2023-04-27T12:46:05;94391.63;;;16.35;29.87
56052;BME280;41919;42.648;23.384;2023-04-27T12:48:31;94250.59;;;15.21;30.04
56052;BME280;41919;42.648;23.384;2023-04-27T12:50:57;94408.63;;;16.05;30.02
56052;BME280;41919;42.648;23.384;2023-04-27T12:53:23;94370.13;;;15.71;30.14
56052;BME280;41919;42.648;23.384;2023-04-27T12:55:48;94353.50;;;15.53;30.57
56052;BME280;41919;42.648;23.384;2023-04-27T12:58:14;94399.38;;;15.40;30.18
56052;BME280;41919;42.648;23.384;2023-04-27T13:00:39;94358.25;;;15.22;31.43